Walker Valley, New York
Current Conditions -  °F | °C
As of 3:54 PM on Tuesday 21 Oct 2014 (Local Time) from KMGJ Reporting Station
Broken Clouds Broken Clouds  
Wind Chill: 54°   Ceiling: 1000
Heat Index: 54°   Visibility: 10mi
Dew Point: 50°   Wind: 7mph
Humidity: 86%   Direction: 60°ENE
Pressure: 29.86"   Gusts: NA
Location:  41.63°N, 74.38°W
Report Text: KMGJ 211954Z AUTO 06006KT 10SM BKN010 BKN045 BKN090 12/10 A2986 RMK AO2 RAB1855E11 SLP113 P0001 T01220100 TSNO
Loading
Personal Weather Stations






























Interactive Weather Map
Tropical Storm Tracking
New forecast layout! Learn more

10-Day Weather Forecast

Advertisements
Track Severe Weather on mobile